sensor_id;sensor_type;location;lat;lon;timestamp;pressure;altitude;pressure_sealevel;temperature
45393;BMP280;31129;44.810;10.334;2024-01-25T00:00:33;76110.97;;;6.72
45393;BMP280;31129;44.810;10.334;2024-01-25T00:02:59;76133.97;;;6.93
45393;BMP280;31129;44.810;10.334;2024-01-25T00:05:24;76130.19;;;6.92
45393;BMP280;31129;44.810;10.334;2024-01-25T00:07:50;76124.66;;;6.85
45393;BMP280;31129;44.810;10.334;2024-01-25T00:10:17;76122.00;;;6.87
45393;BMP280;31129;44.810;10.334;2024-01-25T00:12:43;76124.22;;;6.89
45393;BMP280;31129;44.810;10.334;2024-01-25T00:15:09;76150.94;;;7.12
45393;BMP280;31129;44.810;10.334;2024-01-25T00:17:35;76142.19;;;7.04
45393;BMP280;31129;44.810;10.334;2024-01-25T00:20:01;76148.25;;;7.12
45393;BMP280;31129;44.810;10.334;2024-01-25T00:22:27;76159.19;;;7.19
45393;BMP280;31129;44.810;10.334;2024-01-25T00:24:52;76160.28;;;7.20
45393;BMP280;31129;44.810;10.334;2024-01-25T00:27:18;76160.84;;;7.23
45393;BMP280;31129;44.810;10.334;2024-01-25T00:29:43;76154.19;;;7.12
45393;BMP280;31129;44.810;10.334;2024-01-25T00:32:09;76162.44;;;7.22
45393;BMP280;31129;44.810;10.334;2024-01-25T00:34:34;76159.66;;;7.17
45393;BMP280;31129;44.810;10.334;2024-01-25T00:37:00;76165.22;;;7.28
45393;BMP280;31129;44.810;10.334;2024-01-25T00:39:26;76168.41;;;7.25
45393;BMP280;31129;44.810;10.334;2024-01-25T00:41:52;76185.91;;;7.42
45393;BMP280;31129;44.810;10.334;2024-01-25T00:44:21;76175.59;;;7.37
45393;BMP280;31129;44.810;10.334;2024-01-25T00:46:47;76174.44;;;7.34
45393;BMP280;31129;44.810;10.334;2024-01-25T00:49:13;76170.03;;;7.27
45393;BMP280;31129;44.810;10.334;2024-01-25T00:51:42;76155.28;;;7.13
45393;BMP280;31129;44.810;10.334;2024-01-25T00:54:09;76155.88;;;7.16
45393;BMP280;31129;44.810;10.334;2024-01-25T00:56:35;76142.19;;;7.04
45393;BMP280;31129;44.810;10.334;2024-01-25T00:59:01;76138.31;;;6.98
45393;BMP280;31129;44.810;10.334;2024-01-25T01:01:26;76125.19;;;6.85
45393;BMP280;31129;44.810;10.334;2024-01-25T01:03:54;76120.91;;;6.84
45393;BMP280;31129;44.810;10.334;2024-01-25T01:06:20;76115.94;;;6.77
45393;BMP280;31129;44.810;10.334;2024-01-25T01:08:46;76111.53;;;6.73
45393;BMP280;31129;44.810;10.334;2024-01-25T01:11:12;76102.31;;;6.67
45393;BMP280;31129;44.810;10.334;2024-01-25T01:13:37;76093.59;;;6.61
45393;BMP280;31129;44.810;10.334;2024-01-25T01:16:03;76099.56;;;6.64
45393;BMP280;31129;44.810;10.334;2024-01-25T01:18:29;76097.44;;;6.65
45393;BMP280;31129;44.810;10.334;2024-01-25T01:20:54;76108.28;;;6.70
45393;BMP280;31129;44.810;10.334;2024-01-25T01:23:20;76102.84;;;6.67
45393;BMP280;31129;44.810;10.334;2024-01-25T01:25:45;76088.63;;;6.54
45393;BMP280;31129;44.810;10.334;2024-01-25T01:28:11;76089.13;;;6.52
45393;BMP280;31129;44.810;10.334;2024-01-25T01:30:36;76090.28;;;6.55
45393;BMP280;31129;44.810;10.334;2024-01-25T01:33:02;76079.34;;;6.45
45393;BMP280;31129;44.810;10.334;2024-01-25T01:35:27;76079.34;;;6.45
45393;BMP280;31129;44.810;10.334;2024-01-25T01:37:53;76066.25;;;6.36
45393;BMP280;31129;44.810;10.334;2024-01-25T01:40:18;76076.66;;;6.45
45393;BMP280;31129;44.810;10.334;2024-01-25T01:42:44;76071.19;;;6.40
45393;BMP280;31129;44.810;10.334;2024-01-25T01:45:11;76071.25;;;6.43
45393;BMP280;31129;44.810;10.334;2024-01-25T01:47:37;76069.00;;;6.38
45393;BMP280;31129;44.810;10.334;2024-01-25T01:50:03;76078.28;;;6.47
45393;BMP280;31129;44.810;10.334;2024-01-25T01:52:30;76052.59;;;6.23
45393;BMP280;31129;44.810;10.334;2024-01-25T01:54:56;76043.25;;;6.12
45393;BMP280;31129;44.810;10.334;2024-01-25T01:57:21;76047.19;;;6.20
45393;BMP280;31129;44.810;10.334;2024-01-25T01:59:47;76052.59;;;6.23
45393;BMP280;31129;44.810;10.334;2024-01-25T02:02:14;76049.28;;;6.17
45393;BMP280;31129;44.810;10.334;2024-01-25T02:04:39;76046.56;;;6.15
45393;BMP280;31129;44.810;10.334;2024-01-25T02:07:05;76061.38;;;6.31
45393;BMP280;31129;44.810;10.334;2024-01-25T02:09:31;76046.00;;;6.14
45393;BMP280;31129;44.810;10.334;2024-01-25T02:12:03;76036.16;;;6.05
45393;BMP280;31129;44.810;10.334;2024-01-25T02:14:30;76032.84;;;6.00
45393;BMP280;31129;44.810;10.334;2024-01-25T02:16:56;76017.03;;;5.87
45393;BMP280;31129;44.810;10.334;2024-01-25T02:19:22;76026.88;;;5.97
45393;BMP280;31129;44.810;10.334;2024-01-25T02:21:49;76041.03;;;6.07
45393;BMP280;31129;44.810;10.334;2024-01-25T02:24:15;76040.53;;;6.09
45393;BMP280;31129;44.810;10.334;2024-01-25T02:26:41;76038.84;;;6.05
45393;BMP280;31129;44.810;10.334;2024-01-25T02:29:06;76020.31;;;5.90
45393;BMP280;31129;44.810;10.334;2024-01-25T02:31:33;76045.50;;;6.16
45393;BMP280;31129;44.810;10.334;2024-01-25T02:33:59;76049.31;;;6.20
45393;BMP280;31129;44.810;10.334;2024-01-25T02:36:24;76052.56;;;6.20
45393;BMP280;31129;44.810;10.334;2024-01-25T02:38:49;76021.91;;;5.89
45393;BMP280;31129;44.810;10.334;2024-01-25T02:41:15;76015.41;;;5.86
45393;BMP280;31129;44.810;10.334;2024-01-25T02:43:40;76038.88;;;6.08
45393;BMP280;31129;44.810;10.334;2024-01-25T02:46:07;76035.06;;;6.04
45393;BMP280;31129;44.810;10.334;2024-01-25T02:48:33;76020.31;;;5.90
45393;BMP280;31129;44.810;10.334;2024-01-25T02:50:58;76017.59;;;5.88
45393;BMP280;31129;44.810;10.334;2024-01-25T02:53:24;76006.16;;;5.80
45393;BMP280;31129;44.810;10.334;2024-01-25T02:55:49;76011.03;;;5.82
45393;BMP280;31129;44.810;10.334;2024-01-25T02:58:15;76008.34;;;5.82
45393;BMP280;31129;44.810;10.334;2024-01-25T03:00:40;76016.53;;;5.89
45393;BMP280;31129;44.810;10.334;2024-01-25T03:03:06;76009.91;;;5.81
45393;BMP280;31129;44.810;10.334;2024-01-25T03:05:31;76006.69;;;5.80
45393;BMP280;31129;44.810;10.334;2024-01-25T03:08:00;76009.91;;;5.81
45393;BMP280;31129;44.810;10.334;2024-01-25T03:10:26;75992.44;;;5.65
45393;BMP280;31129;44.810;10.334;2024-01-25T03:12:51;75995.72;;;5.68
45393;BMP280;31129;44.810;10.334;2024-01-25T03:15:17;76000.72;;;5.77
45393;BMP280;31129;44.810;10.334;2024-01-25T03:17:42;75986.47;;;5.61
45393;BMP280;31129;44.810;10.334;2024-01-25T03:20:09;75999.56;;;5.71
45393;BMP280;31129;44.810;10.334;2024-01-25T03:22:35;75978.25;;;5.51
45393;BMP280;31129;44.810;10.334;2024-01-25T03:25:00;75982.03;;;5.52
45393;BMP280;31129;44.810;10.334;2024-01-25T03:27:26;75981.53;;;5.54
45393;BMP280;31129;44.810;10.334;2024-01-25T03:29:51;75985.34;;;5.58
45393;BMP280;31129;44.810;10.334;2024-01-25T03:32:17;75979.34;;;5.52
45393;BMP280;31129;44.810;10.334;2024-01-25T03:34:42;75979.81;;;5.50
45393;BMP280;31129;44.810;10.334;2024-01-25T03:37:08;75979.38;;;5.55
45393;BMP280;31129;44.810;10.334;2024-01-25T03:39:33;75981.53;;;5.54
45393;BMP280;31129;44.810;10.334;2024-01-25T03:41:59;75982.56;;;5.53
45393;BMP280;31129;44.810;10.334;2024-01-25T03:44:24;75975.56;;;5.51
45393;BMP280;31129;44.810;10.334;2024-01-25T03:46:50;75990.78;;;5.63
45393;BMP280;31129;44.810;10.334;2024-01-25T03:49:15;75988.59;;;5.61
45393;BMP280;31129;44.810;10.334;2024-01-25T03:51:41;75995.78;;;5.70
45393;BMP280;31129;44.810;10.334;2024-01-25T03:54:08;75986.41;;;5.56
45393;BMP280;31129;44.810;10.334;2024-01-25T03:56:34;75996.28;;;5.68
45393;BMP280;31129;44.810;10.334;2024-01-25T03:58:59;75978.28;;;5.54
45393;BMP280;31129;44.810;10.334;2024-01-25T04:01:25;75966.22;;;5.40
45393;BMP280;31129;44.810;10.334;2024-01-25T04:03:50;75956.91;;;5.32
45393;BMP280;31129;44.810;10.334;2024-01-25T04:06:16;75955.22;;;5.27
45393;BMP280;31129;44.810;10.334;2024-01-25T04:08:42;75952.03;;;5.27
45393;BMP280;31129;44.810;10.334;2024-01-25T04:11:07;75952.56;;;5.27
45393;BMP280;31129;44.810;10.334;2024-01-25T04:13:35;75953.66;;;5.28
45393;BMP280;31129;44.810;10.334;2024-01-25T04:16:00;75958.56;;;5.33
45393;BMP280;31129;44.810;10.334;2024-01-25T04:18:26;75939.38;;;5.13
45393;BMP280;31129;44.810;10.334;2024-01-25T04:20:51;75931.28;;;5.08
45393;BMP280;31129;44.810;10.334;2024-01-25T04:23:17;75927.41;;;5.04
45393;BMP280;31129;44.810;10.334;2024-01-25T04:25:43;75915.94;;;4.93
45393;BMP280;31129;44.810;10.334;2024-01-25T04:28:09;75916.47;;;4.91
45393;BMP280;31129;44.810;10.334;2024-01-25T04:30:34;75916.00;;;4.96
45393;BMP280;31129;44.810;10.334;2024-01-25T04:33:00;75920.28;;;4.95
45393;BMP280;31129;44.810;10.334;2024-01-25T04:35:25;75919.28;;;4.99
45393;BMP280;31129;44.810;10.334;2024-01-25T04:37:51;75911.59;;;4.89
45393;BMP280;31129;44.810;10.334;2024-01-25T04:40:16;75907.81;;;4.88
45393;BMP280;31129;44.810;10.334;2024-01-25T04:42:42;75914.88;;;4.92
45393;BMP280;31129;44.810;10.334;2024-01-25T04:45:08;75902.31;;;4.81
45393;BMP280;31129;44.810;10.334;2024-01-25T04:47:34;75907.22;;;4.85
45393;BMP280;31129;44.810;10.334;2024-01-25T04:49:59;75916.56;;;4.96
45393;BMP280;31129;44.810;10.334;2024-01-25T04:52:25;75895.19;;;4.74
45393;BMP280;31129;44.810;10.334;2024-01-25T04:54:50;75896.84;;;4.76
45393;BMP280;31129;44.810;10.334;2024-01-25T04:57:15;75912.16;;;4.90
45393;BMP280;31129;44.810;10.334;2024-01-25T04:59:41;75899.63;;;4.81
45393;BMP280;31129;44.810;10.334;2024-01-25T05:02:06;75906.72;;;4.87
45393;BMP280;31129;44.810;10.334;2024-01-25T05:04:32;75905.56;;;4.84
45393;BMP280;31129;44.810;10.334;2024-01-25T05:06:59;75916.50;;;4.94
45393;BMP280;31129;44.810;10.334;2024-01-25T05:09:25;75920.88;;;4.98
45393;BMP280;31129;44.810;10.334;2024-01-25T05:11:50;75913.78;;;4.91
45393;BMP280;31129;44.810;10.334;2024-01-25T05:14:16;75917.09;;;4.97
45393;BMP280;31129;44.810;10.334;2024-01-25T05:16:41;75923.53;;;4.98
45393;BMP280;31129;44.810;10.334;2024-01-25T05:19:07;75930.66;;;5.05
45393;BMP280;31129;44.810;10.334;2024-01-25T05:21:32;75921.97;;;4.99
45393;BMP280;31129;44.810;10.334;2024-01-25T05:23:58;75918.69;;;4.96
45393;BMP280;31129;44.810;10.334;2024-01-25T05:26:23;75916.56;;;4.96
45393;BMP280;31129;44.810;10.334;2024-01-25T05:28:49;75922.50;;;5.00
45393;BMP280;31129;44.810;10.334;2024-01-25T05:31:14;75918.19;;;4.98
45393;BMP280;31129;44.810;10.334;2024-01-25T05:33:42;75925.28;;;5.05
45393;BMP280;31129;44.810;10.334;2024-01-25T05:36:08;75930.72;;;5.07
45393;BMP280;31129;44.810;10.334;2024-01-25T05:38:34;75923.66;;;5.03
45393;BMP280;31129;44.810;10.334;2024-01-25T05:40:59;75924.16;;;5.01
45393;BMP280;31129;44.810;10.334;2024-01-25T05:43:25;75929.13;;;5.08
45393;BMP280;31129;44.810;10.334;2024-01-25T05:45:51;75922.50;;;5.00
45393;BMP280;31129;44.810;10.334;2024-01-25T05:48:16;75930.22;;;5.09
45393;BMP280;31129;44.810;10.334;2024-01-25T05:50:42;75932.97;;;5.14
45393;BMP280;31129;44.810;10.334;2024-01-25T05:53:07;75930.22;;;5.09
45393;BMP280;31129;44.810;10.334;2024-01-25T05:55:33;75938.84;;;5.12
45393;BMP280;31129;44.810;10.334;2024-01-25T05:57:58;75946.50;;;5.19
45393;BMP280;31129;44.810;10.334;2024-01-25T06:00:24;75931.81;;;5.08
45393;BMP280;31129;44.810;10.334;2024-01-25T06:02:49;75931.22;;;5.05
45393;BMP280;31129;44.810;10.334;2024-01-25T06:05:14;75935.03;;;5.09
45393;BMP280;31129;44.810;10.334;2024-01-25T06:07:40;75921.97;;;4.99
45393;BMP280;31129;44.810;10.334;2024-01-25T06:10:07;75935.63;;;5.12
45393;BMP280;31129;44.810;10.334;2024-01-25T06:12:32;75947.59;;;5.20
45393;BMP280;31129;44.810;10.334;2024-01-25T06:14:58;75950.97;;;5.28
45393;BMP280;31129;44.810;10.334;2024-01-25T06:17:24;75932.94;;;5.12
45393;BMP280;31129;44.810;10.334;2024-01-25T06:19:49;75937.84;;;5.16
45393;BMP280;31129;44.810;10.334;2024-01-25T06:22:15;75937.25;;;5.13
45393;BMP280;31129;44.810;10.334;2024-01-25T06:24:42;75922.50;;;5.00
45393;BMP280;31129;44.810;10.334;2024-01-25T06:27:09;75920.38;;;5.00
45393;BMP280;31129;44.810;10.334;2024-01-25T06:29:35;75924.75;;;5.04
45393;BMP280;31129;44.810;10.334;2024-01-25T06:32:01;75935.06;;;5.11
45393;BMP280;31129;44.810;10.334;2024-01-25T06:34:26;75936.13;;;5.10
45393;BMP280;31129;44.810;10.334;2024-01-25T06:36:51;75933.44;;;5.10
45393;BMP280;31129;44.810;10.334;2024-01-25T06:39:17;75934.56;;;5.13
45393;BMP280;31129;44.810;10.334;2024-01-25T06:41:42;75922.00;;;5.02
45393;BMP280;31129;44.810;10.334;2024-01-25T06:44:08;75931.81;;;5.08
45393;BMP280;31129;44.810;10.334;2024-01-25T06:46:34;75924.19;;;5.04
45393;BMP280;31129;44.810;10.334;2024-01-25T06:49:00;75922.50;;;5.00
45393;BMP280;31129;44.810;10.334;2024-01-25T06:51:25;75922.50;;;5.00
45393;BMP280;31129;44.810;10.334;2024-01-25T06:53:51;75914.97;;;4.97
45393;BMP280;31129;44.810;10.334;2024-01-25T06:56:16;75922.50;;;5.00
45393;BMP280;31129;44.810;10.334;2024-01-25T06:58:42;75919.78;;;4.97
45393;BMP280;31129;44.810;10.334;2024-01-25T07:01:07;75914.91;;;4.95
45393;BMP280;31129;44.810;10.334;2024-01-25T07:03:33;75908.97;;;4.92
45393;BMP280;31129;44.810;10.334;2024-01-25T07:05:58;75923.06;;;5.00
45393;BMP280;31129;44.810;10.334;2024-01-25T07:08:24;75939.38;;;5.13
45393;BMP280;31129;44.810;10.334;2024-01-25T07:10:49;75919.78;;;4.97
45393;BMP280;31129;44.810;10.334;2024-01-25T07:13:15;75897.38;;;4.76
45393;BMP280;31129;44.810;10.334;2024-01-25T07:15:41;75886.41;;;4.63
45393;BMP280;31129;44.810;10.334;2024-01-25T07:18:07;75866.84;;;4.50
45393;BMP280;31129;44.810;10.334;2024-01-25T07:20:33;75871.78;;;4.55
45393;BMP280;31129;44.810;10.334;2024-01-25T07:22:58;75873.41;;;4.56
45393;BMP280;31129;44.810;10.334;2024-01-25T07:25:24;75889.25;;;4.71
45393;BMP280;31129;44.810;10.334;2024-01-25T07:27:50;75925.19;;;5.00
45393;BMP280;31129;44.810;10.334;2024-01-25T07:30:15;75903.94;;;4.82
45393;BMP280;31129;44.810;10.334;2024-01-25T07:32:41;75883.19;;;4.63
45393;BMP280;31129;44.810;10.334;2024-01-25T07:35:10;75896.25;;;4.73
45393;BMP280;31129;44.810;10.334;2024-01-25T07:37:37;75894.16;;;4.76
45393;BMP280;31129;44.810;10.334;2024-01-25T07:40:05;75894.16;;;4.76
45393;BMP280;31129;44.810;10.334;2024-01-25T07:42:31;75903.34;;;4.79
45393;BMP280;31129;44.810;10.334;2024-01-25T07:44:57;75904.00;;;4.85
45393;BMP280;31129;44.810;10.334;2024-01-25T07:47:22;75916.47;;;4.91
45393;BMP280;31129;44.810;10.334;2024-01-25T07:49:48;75904.00;;;4.85
45393;BMP280;31129;44.810;10.334;2024-01-25T07:52:14;75939.94;;;5.13
45393;BMP280;31129;44.810;10.334;2024-01-25T07:54:39;75941.03;;;5.14
45393;BMP280;31129;44.810;10.334;2024-01-25T07:57:05;75950.97;;;5.28
45393;BMP280;31129;44.810;10.334;2024-01-25T07:59:31;75957.47;;;5.32
45393;BMP280;31129;44.810;10.334;2024-01-25T08:01:56;75959.09;;;5.34
45393;BMP280;31129;44.810;10.334;2024-01-25T08:04:22;75962.41;;;5.37
45393;BMP280;31129;44.810;10.334;2024-01-25T08:06:47;75977.09;;;5.48
45393;BMP280;31129;44.810;10.334;2024-01-25T08:09:13;75967.91;;;5.44
45393;BMP280;31129;44.810;10.334;2024-01-25T08:11:39;75959.19;;;5.36
45393;BMP280;31129;44.810;10.334;2024-01-25T08:14:04;75976.53;;;5.47
45393;BMP280;31129;44.810;10.334;2024-01-25T08:16:30;75983.75;;;5.59
45393;BMP280;31129;44.810;10.334;2024-01-25T08:18:56;75965.13;;;5.39
45393;BMP280;31129;44.810;10.334;2024-01-25T08:21:21;76017.03;;;5.87
45393;BMP280;31129;44.810;10.334;2024-01-25T08:23:47;75990.75;;;5.60
45393;BMP280;31129;44.810;10.334;2024-01-25T08:26:13;75963.00;;;5.40
45393;BMP280;31129;44.810;10.334;2024-01-25T08:28:42;75985.34;;;5.58
45393;BMP280;31129;44.810;10.334;2024-01-25T08:31:11;75986.97;;;5.59
45393;BMP280;31129;44.810;10.334;2024-01-25T08:33:39;75986.91;;;5.54
45393;BMP280;31129;44.810;10.334;2024-01-25T08:36:09;75973.25;;;5.44
45393;BMP280;31129;44.810;10.334;2024-01-25T08:38:35;75976.50;;;5.45
45393;BMP280;31129;44.810;10.334;2024-01-25T08:41:01;75992.97;;;5.65
45393;BMP280;31129;44.810;10.334;2024-01-25T08:43:26;75993.59;;;5.68
45393;BMP280;31129;44.810;10.334;2024-01-25T08:45:52;75970.03;;;5.44
45393;BMP280;31129;44.810;10.334;2024-01-25T08:48:18;75971.66;;;5.45
45393;BMP280;31129;44.810;10.334;2024-01-25T08:50:43;75967.88;;;5.42
45393;BMP280;31129;44.810;10.334;2024-01-25T08:53:09;75968.91;;;5.40
45393;BMP280;31129;44.810;10.334;2024-01-25T08:55:35;75965.56;;;5.35
45393;BMP280;31129;44.810;10.334;2024-01-25T08:58:00;75974.34;;;5.45
45393;BMP280;31129;44.810;10.334;2024-01-25T09:00:26;75988.59;;;5.61
45393;BMP280;31129;44.810;10.334;2024-01-25T09:02:51;76034.50;;;6.01
45393;BMP280;31129;44.810;10.334;2024-01-25T09:05:17;76027.47;;;6.00
45393;BMP280;31129;44.810;10.334;2024-01-25T09:07:42;76038.88;;;6.08
45393;BMP280;31129;44.810;10.334;2024-01-25T09:10:08;76029.00;;;5.96
45393;BMP280;31129;44.810;10.334;2024-01-25T09:12:34;76050.41;;;6.21
45393;BMP280;31129;44.810;10.334;2024-01-25T09:15:01;76042.16;;;6.11
45393;BMP280;31129;44.810;10.334;2024-01-25T09:17:27;76036.19;;;6.08
45393;BMP280;31129;44.810;10.334;2024-01-25T09:19:52;76059.72;;;6.30
45393;BMP280;31129;44.810;10.334;2024-01-25T09:22:18;76039.97;;;6.09
45393;BMP280;31129;44.810;10.334;2024-01-25T09:24:45;76080.97;;;6.47
45393;BMP280;31129;44.810;10.334;2024-01-25T09:27:12;76104.50;;;6.71
45393;BMP280;31129;44.810;10.334;2024-01-25T09:29:39;76111.63;;;6.78
45393;BMP280;31129;44.810;10.334;2024-01-25T09:32:11;76127.38;;;6.87
45393;BMP280;31129;44.810;10.334;2024-01-25T09:34:38;76145.53;;;7.09
45393;BMP280;31129;44.810;10.334;2024-01-25T09:37:04;76162.53;;;7.28
45393;BMP280;31129;44.810;10.334;2024-01-25T09:39:31;76186.59;;;7.50
45393;BMP280;31129;44.810;10.334;2024-01-25T09:41:57;76200.84;;;7.66
45393;BMP280;31129;44.810;10.334;2024-01-25T09:44:23;76183.34;;;7.49
45393;BMP280;31129;44.810;10.334;2024-01-25T09:46:49;76198.06;;;7.60
45393;BMP280;31129;44.810;10.334;2024-01-25T09:49:14;76225.91;;;7.84
45393;BMP280;31129;44.810;10.334;2024-01-25T09:51:41;76222.16;;;7.85
45393;BMP280;31129;44.810;10.334;2024-01-25T09:54:07;76222.69;;;7.83
45393;BMP280;31129;44.810;10.334;2024-01-25T09:56:33;76235.19;;;7.92
45393;BMP280;31129;44.810;10.334;2024-01-25T09:58:59;76252.19;;;8.11
45393;BMP280;31129;44.810;10.334;2024-01-25T10:01:26;76235.22;;;7.95
45393;BMP280;31129;44.810;10.334;2024-01-25T10:03:52;76225.31;;;7.81
45393;BMP280;31129;44.810;10.334;2024-01-25T10:06:17;76187.06;;;7.48
45393;BMP280;31129;44.810;10.334;2024-01-25T10:08:43;76170.69;;;7.33
45393;BMP280;31129;44.810;10.334;2024-01-25T10:11:09;76168.53;;;7.33
45393;BMP280;31129;44.810;10.334;2024-01-25T10:13:47;76166.84;;;7.29
45393;BMP280;31129;44.810;10.334;2024-01-25T10:16:18;76176.59;;;7.33
45393;BMP280;31129;44.810;10.334;2024-01-25T10:18:45;76171.72;;;7.31
45393;BMP280;31129;44.810;10.334;2024-01-25T10:21:12;76177.69;;;7.34
45393;BMP280;31129;44.810;10.334;2024-01-25T10:23:39;76199.09;;;7.59
45393;BMP280;31129;44.810;10.334;2024-01-25T10:26:05;76208.94;;;7.66
45393;BMP280;31129;44.810;10.334;2024-01-25T10:28:33;76210.03;;;7.69
45393;BMP280;31129;44.810;10.334;2024-01-25T10:31:01;76233.00;;;7.90
45393;BMP280;31129;44.810;10.334;2024-01-25T10:33:27;76239.47;;;7.91
45393;BMP280;31129;44.810;10.334;2024-01-25T10:35:54;76241.16;;;7.96
45393;BMP280;31129;44.810;10.334;2024-01-25T10:38:24;76242.34;;;8.02
45393;BMP280;31129;44.810;10.334;2024-01-25T10:40:50;76253.28;;;8.12
45393;BMP280;31129;44.810;10.334;2024-01-25T10:43:16;76261.97;;;8.15
45393;BMP280;31129;44.810;10.334;2024-01-25T10:45:42;76256.53;;;8.12
45393;BMP280;31129;44.810;10.334;2024-01-25T10:48:07;76264.75;;;8.20
45393;BMP280;31129;44.810;10.334;2024-01-25T10:50:33;76275.09;;;8.27
45393;BMP280;31129;44.810;10.334;2024-01-25T10:52:59;76261.47;;;8.17
45393;BMP280;31129;44.810;10.334;2024-01-25T10:55:26;76263.66;;;8.19
45393;BMP280;31129;44.810;10.334;2024-01-25T10:57:51;76281.19;;;8.38
45393;BMP280;31129;44.810;10.334;2024-01-25T11:00:17;76277.31;;;8.32
45393;BMP280;31129;44.810;10.334;2024-01-25T11:02:44;76291.03;;;8.47
45393;BMP280;31129;44.810;10.334;2024-01-25T11:05:14;76298.66;;;8.54
45393;BMP280;31129;44.810;10.334;2024-01-25T11:07:47;76292.13;;;8.48
45393;BMP280;31129;44.810;10.334;2024-01-25T11:10:20;76312.88;;;8.65
45393;BMP280;31129;44.810;10.334;2024-01-25T11:12:56;76328.22;;;8.81
45393;BMP280;31129;44.810;10.334;2024-01-25T11:15:23;76329.28;;;8.80
45393;BMP280;31129;44.810;10.334;2024-01-25T11:17:56;76339.13;;;8.89
45393;BMP280;31129;44.810;10.334;2024-01-25T11:20:27;76348.94;;;8.95
45393;BMP280;31129;44.810;10.334;2024-01-25T11:23:01;76351.22;;;9.03
45393;BMP280;31129;44.810;10.334;2024-01-25T11:25:30;76363.19;;;9.11
45393;BMP280;31129;44.810;10.334;2024-01-25T11:27:57;76371.44;;;9.21
45393;BMP280;31129;44.810;10.334;2024-01-25T11:30:23;76376.94;;;9.29
45393;BMP280;31129;44.810;10.334;2024-01-25T11:32:48;76393.84;;;9.40
45393;BMP280;31129;44.810;10.334;2024-01-25T11:35:15;76390.06;;;9.39
45393;BMP280;31129;44.810;10.334;2024-01-25T11:37:47;76401.00;;;9.49
45393;BMP280;31129;44.810;10.334;2024-01-25T11:40:14;76410.81;;;9.55
45393;BMP280;31129;44.810;10.334;2024-01-25T11:42:42;76418.53;;;9.68
45393;BMP280;31129;44.810;10.334;2024-01-25T11:45:09;76425.03;;;9.69
45393;BMP280;31129;44.810;10.334;2024-01-25T11:47:35;76435.41;;;9.78
45393;BMP280;31129;44.810;10.334;2024-01-25T11:50:02;76439.31;;;9.84
45393;BMP280;31129;44.810;10.334;2024-01-25T11:52:28;76449.16;;;9.96
45393;BMP280;31129;44.810;10.334;2024-01-25T11:54:54;76467.69;;;10.08
45393;BMP280;31129;44.810;10.334;2024-01-25T11:57:20;76483.53;;;10.20
45393;BMP280;31129;44.810;10.334;2024-01-25T11:59:46;76474.81;;;10.15
45393;BMP280;31129;44.810;10.334;2024-01-25T12:02:13;76488.53;;;10.27
45393;BMP280;31129;44.810;10.334;2024-01-25T12:04:39;76501.59;;;10.37
45393;BMP280;31129;44.810;10.334;2024-01-25T12:07:05;76513.16;;;10.53
45393;BMP280;31129;44.810;10.334;2024-01-25T12:09:31;76515.94;;;10.58
45393;BMP280;31129;44.810;10.334;2024-01-25T12:11:56;76532.28;;;10.68
45393;BMP280;31129;44.810;10.334;2024-01-25T12:14:24;76545.94;;;10.78
45393;BMP280;31129;44.810;10.334;2024-01-25T12:16:49;76555.84;;;10.90
45393;BMP280;31129;44.810;10.334;2024-01-25T12:19:15;76556.94;;;10.93
45393;BMP280;31129;44.810;10.334;2024-01-25T12:21:44;76575.53;;;11.08
45393;BMP280;31129;44.810;10.334;2024-01-25T12:24:10;76589.22;;;11.21
45393;BMP280;31129;44.810;10.334;2024-01-25T12:26:36;76593.59;;;11.22
45393;BMP280;31129;44.810;10.334;2024-01-25T12:29:02;76599.59;;;11.28
45393;BMP280;31129;44.810;10.334;2024-01-25T12:31:28;76607.31;;;11.40
45393;BMP280;31129;44.810;10.334;2024-01-25T12:33:54;76622.63;;;11.52
45393;BMP280;31129;44.810;10.334;2024-01-25T12:36:19;76641.22;;;11.66
45393;BMP280;31129;44.810;10.334;2024-01-25T12:38:45;76647.81;;;11.75
45393;BMP280;31129;44.810;10.334;2024-01-25T12:41:10;76649.44;;;11.77
45393;BMP280;31129;44.810;10.334;2024-01-25T12:43:45;76664.81;;;11.93
45393;BMP280;31129;44.810;10.334;2024-01-25T12:46:13;76669.72;;;11.95
45393;BMP280;31129;44.810;10.334;2024-01-25T12:48:39;76675.72;;;12.01
45393;BMP280;31129;44.810;10.334;2024-01-25T12:51:04;76706.94;;;12.30
45393;BMP280;31129;44.810;10.334;2024-01-25T12:53:30;76693.81;;;12.18
45393;BMP280;31129;44.810;10.334;2024-01-25T12:55:55;76699.28;;;12.23
45393;BMP280;31129;44.810;10.334;2024-01-25T12:58:21;76730.50;;;12.52
45393;BMP280;31129;44.810;10.334;2024-01-25T13:00:47;76731.00;;;12.50
45393;BMP280;31129;44.810;10.334;2024-01-25T13:03:12;76729.41;;;12.51
45393;BMP280;31129;44.810;10.334;2024-01-25T13:05:38;76713.50;;;12.33
45393;BMP280;31129;44.810;10.334;2024-01-25T13:08:06;76704.22;;;12.27
45393;BMP280;31129;44.810;10.334;2024-01-25T13:10:31;76703.69;;;12.27
45393;BMP280;31129;44.810;10.334;2024-01-25T13:12:57;76712.97;;;12.35
45393;BMP280;31129;44.810;10.334;2024-01-25T13:15:23;76706.41;;;12.29
45393;BMP280;31129;44.810;10.334;2024-01-25T13:17:49;76715.69;;;12.38
45393;BMP280;31129;44.810;10.334;2024-01-25T13:20:15;76728.28;;;12.50
45393;BMP280;31129;44.810;10.334;2024-01-25T13:22:40;76734.81;;;12.51
45393;BMP280;31129;44.810;10.334;2024-01-25T13:25:06;76739.78;;;12.58
45393;BMP280;31129;44.810;10.334;2024-01-25T13:27:32;76771.59;;;12.92
45393;BMP280;31129;44.810;10.334;2024-01-25T13:29:57;76826.91;;;13.43
45393;BMP280;31129;44.810;10.334;2024-01-25T13:32:23;76841.69;;;13.54
45393;BMP280;31129;44.810;10.334;2024-01-25T13:34:49;76832.41;;;13.46
45393;BMP280;31129;44.810;10.334;2024-01-25T13:37:14;76817.06;;;13.32
45393;BMP280;31129;44.810;10.334;2024-01-25T13:39:40;76852.66;;;13.67
45393;BMP280;31129;44.810;10.334;2024-01-25T13:42:05;76830.72;;;13.44
45393;BMP280;31129;44.810;10.334;2024-01-25T13:44:31;76826.91;;;13.41
45393;BMP280;31129;44.810;10.334;2024-01-25T13:46:56;76822.53;;;13.39
45393;BMP280;31129;44.810;10.334;2024-01-25T13:49:22;76796.22;;;13.12
45393;BMP280;31129;44.810;10.334;2024-01-25T13:51:48;76756.22;;;12.73
45393;BMP280;31129;44.810;10.334;2024-01-25T13:54:13;76755.16;;;12.77
45393;BMP280;31129;44.810;10.334;2024-01-25T13:56:39;76780.34;;;12.98
45393;BMP280;31129;44.810;10.334;2024-01-25T13:59:05;76779.78;;;12.95